sensor_id;sensor_type;location;lat;lon;timestamp;P1;durP1;ratioP1;P2;durP2;ratioP2
3767;SDS011;1899;49.966;7.106;2022-07-10T04:01:52;6.10;;;1.97;;
3767;SDS011;1899;49.966;7.106;2022-07-10T04:04:17;4.33;;;2.17;;
3767;SDS011;1899;49.966;7.106;2022-07-10T04:06:42;3.60;;;2.20;;
3767;SDS011;1899;49.966;7.106;2022-07-10T04:09:07;10.03;;;2.90;;
3767;SDS011;1899;49.966;7.106;2022-07-10T04:11:33;7.33;;;3.43;;
3767;SDS011;1899;49.966;7.106;2022-07-10T04:13:58;3.20;;;2.03;;
3767;SDS011;1899;49.966;7.106;2022-07-10T04:16:23;4.50;;;2.50;;
3767;SDS011;1899;49.966;7.106;2022-07-10T04:18:48;7.60;;;2.37;;
3767;SDS011;1899;49.966;7.106;2022-07-10T04:21:14;5.03;;;2.80;;
3767;SDS011;1899;49.966;7.106;2022-07-10T04:23:39;2.63;;;2.10;;
3767;SDS011;1899;49.966;7.106;2022-07-10T04:26:05;4.47;;;2.50;;
3767;SDS011;1899;49.966;7.106;2022-07-10T04:28:30;2.70;;;2.10;;
3767;SDS011;1899;49.966;7.106;2022-07-10T04:30:55;7.07;;;2.73;;
3767;SDS011;1899;49.966;7.106;2022-07-10T04:33:20;3.50;;;2.30;;
3767;SDS011;1899;49.966;7.106;2022-07-10T04:35:46;4.17;;;2.57;;
3767;SDS011;1899;49.966;7.106;2022-07-10T04:38:11;4.20;;;2.13;;
3767;SDS011;1899;49.966;7.106;2022-07-10T04:40:36;2.60;;;2.37;;
3767;SDS011;1899;49.966;7.106;2022-07-10T04:43:01;2.80;;;2.50;;
3767;SDS011;1899;49.966;7.106;2022-07-10T04:45:27;7.13;;;2.43;;
3767;SDS011;1899;49.966;7.106;2022-07-10T04:47:52;3.27;;;2.20;;
3767;SDS011;1899;49.966;7.106;2022-07-10T04:50:17;2.30;;;2.10;;
3767;SDS011;1899;49.966;7.106;2022-07-10T04:52:43;3.30;;;2.13;;
3767;SDS011;1899;49.966;7.106;2022-07-10T04:55:08;6.53;;;2.10;;
3767;SDS011;1899;49.966;7.106;2022-07-10T04:57:34;5.53;;;2.23;;
3767;SDS011;1899;49.966;7.106;2022-07-10T05:00:00;9.80;;;2.63;;
3767;SDS011;1899;49.966;7.106;2022-07-10T05:02:25;9.70;;;2.63;;
3767;SDS011;1899;49.966;7.106;2022-07-10T05:04:50;4.80;;;1.97;;
3767;SDS011;1899;49.966;7.106;2022-07-10T05:07:15;3.83;;;2.13;;
3767;SDS011;1899;49.966;7.106;2022-07-10T05:09:41;8.33;;;2.90;;
3767;SDS011;1899;49.966;7.106;2022-07-10T05:12:06;2.77;;;2.10;;
3767;SDS011;1899;49.966;7.106;2022-07-10T05:14:32;4.23;;;2.43;;
3767;SDS011;1899;49.966;7.106;2022-07-10T05:16:57;3.30;;;1.90;;
3767;SDS011;1899;49.966;7.106;2022-07-10T05:19:22;8.50;;;2.93;;
3767;SDS011;1899;49.966;7.106;2022-07-10T05:21:47;7.50;;;3.13;;
3767;SDS011;1899;49.966;7.106;2022-07-10T05:24:13;4.33;;;2.80;;
3767;SDS011;1899;49.966;7.106;2022-07-10T05:26:38;5.13;;;2.50;;
3767;SDS011;1899;49.966;7.106;2022-07-10T05:29:03;3.20;;;2.50;;
3767;SDS011;1899;49.966;7.106;2022-07-10T05:31:28;3.43;;;2.30;;
3767;SDS011;1899;49.966;7.106;2022-07-10T05:33:54;4.40;;;2.60;;
3767;SDS011;1899;49.966;7.106;2022-07-10T05:36:19;3.20;;;2.70;;
3767;SDS011;1899;49.966;7.106;2022-07-10T05:38:44;4.40;;;2.60;;
3767;SDS011;1899;49.966;7.106;2022-07-10T05:41:09;4.67;;;2.50;;
3767;SDS011;1899;49.966;7.106;2022-07-10T05:43:35;4.63;;;2.70;;
3767;SDS011;1899;49.966;7.106;2022-07-10T05:46:00;4.73;;;2.30;;
3767;SDS011;1899;49.966;7.106;2022-07-10T05:48:25;4.87;;;2.50;;
3767;SDS011;1899;49.966;7.106;2022-07-10T05:50:50;4.83;;;2.37;;
3767;SDS011;1899;49.966;7.106;2022-07-10T05:53:16;5.50;;;2.07;;
3767;SDS011;1899;49.966;7.106;2022-07-10T05:55:44;2.73;;;1.90;;
3767;SDS011;1899;49.966;7.106;2022-07-10T05:58:09;2.50;;;2.00;;
3767;SDS011;1899;49.966;7.106;2022-07-10T06:00:35;4.47;;;1.73;;
3767;SDS011;1899;49.966;7.106;2022-07-10T06:03:00;4.63;;;1.90;;
3767;SDS011;1899;49.966;7.106;2022-07-10T06:05:26;5.00;;;2.10;;
3767;SDS011;1899;49.966;7.106;2022-07-10T06:07:51;6.03;;;2.20;;
3767;SDS011;1899;49.966;7.106;2022-07-10T06:10:16;4.83;;;1.67;;
3767;SDS011;1899;49.966;7.106;2022-07-10T06:12:42;4.03;;;1.90;;
3767;SDS011;1899;49.966;7.106;2022-07-10T06:15:07;4.90;;;1.83;;
3767;SDS011;1899;49.966;7.106;2022-07-10T06:17:32;4.33;;;1.60;;
3767;SDS011;1899;49.966;7.106;2022-07-10T06:19:58;2.90;;;1.57;;
3767;SDS011;1899;49.966;7.106;2022-07-10T06:22:23;4.03;;;1.57;;
3767;SDS011;1899;49.966;7.106;2022-07-10T06:24:58;2.07;;;1.60;;
3767;SDS011;1899;49.966;7.106;2022-07-10T06:27:24;4.53;;;1.70;;
3767;SDS011;1899;49.966;7.106;2022-07-10T06:29:50;3.97;;;1.50;;
3767;SDS011;1899;49.966;7.106;2022-07-10T06:32:15;5.17;;;2.00;;
3767;SDS011;1899;49.966;7.106;2022-07-10T06:34:40;4.50;;;1.60;;
3767;SDS011;1899;49.966;7.106;2022-07-10T06:37:05;2.87;;;1.90;;
3767;SDS011;1899;49.966;7.106;2022-07-10T06:39:32;3.97;;;1.40;;
3767;SDS011;1899;49.966;7.106;2022-07-10T06:42:01;3.20;;;1.30;;
3767;SDS011;1899;49.966;7.106;2022-07-10T06:44:26;3.23;;;1.33;;
3767;SDS011;1899;49.966;7.106;2022-07-10T06:46:51;3.47;;;1.60;;
3767;SDS011;1899;49.966;7.106;2022-07-10T06:49:35;3.87;;;1.40;;
3767;SDS011;1899;49.966;7.106;2022-07-10T06:52:00;3.30;;;1.43;;
3767;SDS011;1899;49.966;7.106;2022-07-10T06:54:25;1.97;;;1.50;;
3767;SDS011;1899;49.966;7.106;2022-07-10T06:56:51;5.20;;;2.10;;
3767;SDS011;1899;49.966;7.106;2022-07-10T06:59:17;4.00;;;1.27;;
3767;SDS011;1899;49.966;7.106;2022-07-10T07:01:42;3.17;;;2.40;;
3767;SDS011;1899;49.966;7.106;2022-07-10T07:04:07;3.37;;;1.20;;
3767;SDS011;1899;49.966;7.106;2022-07-10T07:06:32;2.53;;;1.20;;
3767;SDS011;1899;49.966;7.106;2022-07-10T07:08:57;5.43;;;1.60;;
3767;SDS011;1899;49.966;7.106;2022-07-10T07:11:23;2.93;;;1.40;;
3767;SDS011;1899;49.966;7.106;2022-07-10T07:13:48;8.90;;;1.50;;
3767;SDS011;1899;49.966;7.106;2022-07-10T07:16:13;3.10;;;1.57;;
3767;SDS011;1899;49.966;7.106;2022-07-10T07:18:43;4.70;;;1.77;;
3767;SDS011;1899;49.966;7.106;2022-07-10T07:21:14;3.87;;;1.60;;
3767;SDS011;1899;49.966;7.106;2022-07-10T07:23:58;3.27;;;1.40;;
3767;SDS011;1899;49.966;7.106;2022-07-10T07:26:23;3.60;;;1.40;;
3767;SDS011;1899;49.966;7.106;2022-07-10T07:28:48;4.87;;;1.67;;
3767;SDS011;1899;49.966;7.106;2022-07-10T07:31:14;2.43;;;1.50;;
3767;SDS011;1899;49.966;7.106;2022-07-10T07:33:42;2.40;;;1.23;;
3767;SDS011;1899;49.966;7.106;2022-07-10T07:36:08;3.87;;;1.53;;
3767;SDS011;1899;49.966;7.106;2022-07-10T07:38:33;3.20;;;1.60;;
3767;SDS011;1899;49.966;7.106;2022-07-10T07:40:58;3.10;;;1.10;;
3767;SDS011;1899;49.966;7.106;2022-07-10T07:43:24;4.20;;;1.40;;
3767;SDS011;1899;49.966;7.106;2022-07-10T07:45:49;8.13;;;1.83;;
3767;SDS011;1899;49.966;7.106;2022-07-10T07:48:14;3.60;;;1.70;;
3767;SDS011;1899;49.966;7.106;2022-07-10T07:50:40;3.47;;;1.87;;
3767;SDS011;1899;49.966;7.106;2022-07-10T07:53:05;3.80;;;2.10;;
3767;SDS011;1899;49.966;7.106;2022-07-10T07:55:32;2.00;;;1.67;;
3767;SDS011;1899;49.966;7.106;2022-07-10T07:57:58;3.77;;;1.83;;
3767;SDS011;1899;49.966;7.106;2022-07-10T08:00:24;3.87;;;2.13;;
3767;SDS011;1899;49.966;7.106;2022-07-10T08:02:50;4.33;;;2.27;;
3767;SDS011;1899;49.966;7.106;2022-07-10T08:05:15;3.77;;;2.67;;
3767;SDS011;1899;49.966;7.106;2022-07-10T08:07:45;3.90;;;1.93;;
3767;SDS011;1899;49.966;7.106;2022-07-10T08:10:11;4.57;;;2.40;;
3767;SDS011;1899;49.966;7.106;2022-07-10T08:12:38;3.10;;;2.33;;
3767;SDS011;1899;49.966;7.106;2022-07-10T08:15:04;5.47;;;2.70;;
3767;SDS011;1899;49.966;7.106;2022-07-10T08:17:30;7.33;;;2.50;;
3767;SDS011;1899;49.966;7.106;2022-07-10T08:19:55;7.33;;;2.23;;
3767;SDS011;1899;49.966;7.106;2022-07-10T08:22:21;4.23;;;2.30;;
3767;SDS011;1899;49.966;7.106;2022-07-10T08:24:46;4.50;;;2.20;;
3767;SDS011;1899;49.966;7.106;2022-07-10T08:27:11;3.80;;;2.40;;
3767;SDS011;1899;49.966;7.106;2022-07-10T08:29:37;2.83;;;2.17;;
3767;SDS011;1899;49.966;7.106;2022-07-10T08:32:02;3.00;;;2.00;;
3767;SDS011;1899;49.966;7.106;2022-07-10T08:34:28;4.90;;;2.10;;
3767;SDS011;1899;49.966;7.106;2022-07-10T08:36:53;3.07;;;2.13;;
3767;SDS011;1899;49.966;7.106;2022-07-10T08:39:18;3.37;;;2.00;;
3767;SDS011;1899;49.966;7.106;2022-07-10T08:41:46;2.27;;;1.80;;
3767;SDS011;1899;49.966;7.106;2022-07-10T08:44:14;2.70;;;1.80;;
3767;SDS011;1899;49.966;7.106;2022-07-10T08:46:39;3.20;;;1.70;;
3767;SDS011;1899;49.966;7.106;2022-07-10T08:49:05;8.83;;;2.00;;
3767;SDS011;1899;49.966;7.106;2022-07-10T08:51:37;6.40;;;1.93;;
3767;SDS011;1899;49.966;7.106;2022-07-10T08:54:06;3.50;;;1.57;;
3767;SDS011;1899;49.966;7.106;2022-07-10T08:56:32;2.70;;;1.60;;
3767;SDS011;1899;49.966;7.106;2022-07-10T08:58:58;2.33;;;1.27;;
3767;SDS011;1899;49.966;7.106;2022-07-10T09:01:24;2.00;;;1.60;;
3767;SDS011;1899;49.966;7.106;2022-07-10T09:03:49;4.43;;;1.53;;
3767;SDS011;1899;49.966;7.106;2022-07-10T09:06:15;1.90;;;1.20;;
3767;SDS011;1899;49.966;7.106;2022-07-10T09:08:44;2.93;;;1.17;;
3767;SDS011;1899;49.966;7.106;2022-07-10T09:11:22;3.23;;;1.20;;
3767;SDS011;1899;49.966;7.106;2022-07-10T09:13:55;2.83;;;1.20;;
3767;SDS011;1899;49.966;7.106;2022-07-10T09:16:24;3.67;;;1.10;;
3767;SDS011;1899;49.966;7.106;2022-07-10T09:18:50;3.20;;;1.20;;
3767;SDS011;1899;49.966;7.106;2022-07-10T09:21:15;4.23;;;1.37;;
3767;SDS011;1899;49.966;7.106;2022-07-10T09:23:41;6.10;;;1.33;;
3767;SDS011;1899;49.966;7.106;2022-07-10T09:26:06;3.20;;;1.03;;
3767;SDS011;1899;49.966;7.106;2022-07-10T09:28:32;2.83;;;1.30;;
3767;SDS011;1899;49.966;7.106;2022-07-10T09:30:57;4.70;;;1.50;;
3767;SDS011;1899;49.966;7.106;2022-07-10T09:33:27;6.00;;;1.20;;
3767;SDS011;1899;49.966;7.106;2022-07-10T09:39:03;2.87;;;1.10;;
3767;SDS011;1899;49.966;7.106;2022-07-10T09:46:16;2.77;;;1.03;;
3767;SDS011;1899;49.966;7.106;2022-07-10T09:48:41;2.27;;;1.00;;
3767;SDS011;1899;49.966;7.106;2022-07-10T09:51:08;3.10;;;1.27;;
3767;SDS011;1899;49.966;7.106;2022-07-10T09:53:40;3.50;;;1.40;;
3767;SDS011;1899;49.966;7.106;2022-07-10T09:56:09;4.60;;;1.37;;
3767;SDS011;1899;49.966;7.106;2022-07-10T09:58:35;3.13;;;1.13;;
3767;SDS011;1899;49.966;7.106;2022-07-10T10:01:05;2.73;;;1.97;;
3767;SDS011;1899;49.966;7.106;2022-07-10T10:03:37;2.97;;;1.67;;
3767;SDS011;1899;49.966;7.106;2022-07-10T10:06:03;4.87;;;2.10;;
3767;SDS011;1899;49.966;7.106;2022-07-10T10:10:56;2.80;;;1.83;;
3767;SDS011;1899;49.966;7.106;2022-07-10T10:13:22;4.13;;;2.80;;
3767;SDS011;1899;49.966;7.106;2022-07-10T10:15:48;2.27;;;1.63;;
3767;SDS011;1899;49.966;7.106;2022-07-10T10:18:20;4.10;;;2.13;;
3767;SDS011;1899;49.966;7.106;2022-07-10T10:20:46;2.43;;;1.70;;
3767;SDS011;1899;49.966;7.106;2022-07-10T10:23:13;2.90;;;1.80;;
3767;SDS011;1899;49.966;7.106;2022-07-10T10:25:39;3.10;;;1.70;;
3767;SDS011;1899;49.966;7.106;2022-07-10T10:28:05;2.33;;;2.10;;
3767;SDS011;1899;49.966;7.106;2022-07-10T10:30:32;2.83;;;2.00;;
3767;SDS011;1899;49.966;7.106;2022-07-10T10:32:58;2.90;;;2.10;;
3767;SDS011;1899;49.966;7.106;2022-07-10T10:35:43;2.70;;;2.20;;
3767;SDS011;1899;49.966;7.106;2022-07-10T10:38:12;4.70;;;2.40;;
3767;SDS011;1899;49.966;7.106;2022-07-10T10:40:37;3.03;;;2.33;;
3767;SDS011;1899;49.966;7.106;2022-07-10T10:45:43;3.10;;;2.80;;
3767;SDS011;1899;49.966;7.106;2022-07-10T10:48:10;2.00;;;1.70;;
3767;SDS011;1899;49.966;7.106;2022-07-10T10:50:36;2.07;;;1.87;;
3767;SDS011;1899;49.966;7.106;2022-07-10T10:53:02;4.37;;;2.13;;
3767;SDS011;1899;49.966;7.106;2022-07-10T10:55:28;2.37;;;2.20;;
3767;SDS011;1899;49.966;7.106;2022-07-10T10:57:53;2.87;;;1.80;;
3767;SDS011;1899;49.966;7.106;2022-07-10T11:00:36;2.23;;;1.90;;
3767;SDS011;1899;49.966;7.106;2022-07-10T11:03:13;3.10;;;1.87;;
3767;SDS011;1899;49.966;7.106;2022-07-10T11:05:39;3.40;;;1.77;;
3767;SDS011;1899;49.966;7.106;2022-07-10T11:08:06;3.20;;;1.67;;
3767;SDS011;1899;49.966;7.106;2022-07-10T11:15:30;2.00;;;1.80;;
3767;SDS011;1899;49.966;7.106;2022-07-10T11:17:58;1.27;;;1.17;;
3767;SDS011;1899;49.966;7.106;2022-07-10T11:20:24;3.23;;;1.50;;
3767;SDS011;1899;49.966;7.106;2022-07-10T11:22:52;2.70;;;1.50;;
3767;SDS011;1899;49.966;7.106;2022-07-10T11:28:05;1.77;;;1.67;;
3767;SDS011;1899;49.966;7.106;2022-07-10T11:30:47;1.93;;;1.57;;
3767;SDS011;1899;49.966;7.106;2022-07-10T11:33:14;4.63;;;1.53;;
3767;SDS011;1899;49.966;7.106;2022-07-10T11:35:39;1.83;;;1.50;;
3767;SDS011;1899;49.966;7.106;2022-07-10T11:38:05;1.97;;;1.60;;
3767;SDS011;1899;49.966;7.106;2022-07-10T11:40:30;3.23;;;1.50;;
3767;SDS011;1899;49.966;7.106;2022-07-10T11:42:56;2.60;;;1.87;;
3767;SDS011;1899;49.966;7.106;2022-07-10T11:45:29;1.60;;;1.50;;
3767;SDS011;1899;49.966;7.106;2022-07-10T11:47:55;2.10;;;1.47;;
3767;SDS011;1899;49.966;7.106;2022-07-10T11:50:21;1.30;;;1.20;;
3767;SDS011;1899;49.966;7.106;2022-07-10T11:52:46;3.43;;;1.80;;
3767;SDS011;1899;49.966;7.106;2022-07-10T11:55:15;2.20;;;1.60;;
3767;SDS011;1899;49.966;7.106;2022-07-10T11:57:41;1.37;;;1.27;;
3767;SDS011;1899;49.966;7.106;2022-07-10T12:00:06;1.90;;;1.70;;
3767;SDS011;1899;49.966;7.106;2022-07-10T12:02:32;1.67;;;1.30;;
3767;SDS011;1899;49.966;7.106;2022-07-10T12:04:58;1.70;;;1.50;;
3767;SDS011;1899;49.966;7.106;2022-07-10T12:07:23;1.53;;;1.43;;
3767;SDS011;1899;49.966;7.106;2022-07-10T12:09:54;1.60;;;1.50;;
3767;SDS011;1899;49.966;7.106;2022-07-10T12:12:22;1.63;;;1.20;;
3767;SDS011;1899;49.966;7.106;2022-07-10T12:14:47;2.33;;;1.30;;
3767;SDS011;1899;49.966;7.106;2022-07-10T12:17:12;1.40;;;1.30;;
3767;SDS011;1899;49.966;7.106;2022-07-10T12:19:38;2.07;;;1.10;;
3767;SDS011;1899;49.966;7.106;2022-07-10T12:22:06;1.30;;;1.03;;
3767;SDS011;1899;49.966;7.106;2022-07-10T12:24:32;1.80;;;1.33;;
3767;SDS011;1899;49.966;7.106;2022-07-10T12:26:57;1.60;;;1.20;;
3767;SDS011;1899;49.966;7.106;2022-07-10T12:31:49;2.13;;;1.40;;
3767;SDS011;1899;49.966;7.106;2022-07-10T12:34:15;2.00;;;1.83;;
3767;SDS011;1899;49.966;7.106;2022-07-10T12:36:41;2.57;;;1.27;;
3767;SDS011;1899;49.966;7.106;2022-07-10T12:39:06;1.50;;;1.30;;
3767;SDS011;1899;49.966;7.106;2022-07-10T12:41:31;2.03;;;1.40;;
3767;SDS011;1899;49.966;7.106;2022-07-10T12:43:57;1.60;;;1.50;;
3767;SDS011;1899;49.966;7.106;2022-07-10T12:46:23;1.77;;;1.10;;
3767;SDS011;1899;49.966;7.106;2022-07-10T12:49:07;1.50;;;1.40;;
3767;SDS011;1899;49.966;7.106;2022-07-10T12:51:34;2.73;;;1.50;;
3767;SDS011;1899;49.966;7.106;2022-07-10T12:54:00;1.60;;;1.23;;
3767;SDS011;1899;49.966;7.106;2022-07-10T12:56:35;1.63;;;1.53;;
3767;SDS011;1899;49.966;7.106;2022-07-10T12:59:02;2.23;;;1.30;;
3767;SDS011;1899;49.966;7.106;2022-07-10T13:01:28;2.13;;;1.90;;
3767;SDS011;1899;49.966;7.106;2022-07-10T13:03:57;2.27;;;1.77;;
3767;SDS011;1899;49.966;7.106;2022-07-10T13:06:26;1.60;;;1.50;;
3767;SDS011;1899;49.966;7.106;2022-07-10T13:08:52;1.50;;;1.30;;
3767;SDS011;1899;49.966;7.106;2022-07-10T13:11:17;2.03;;;1.60;;
3767;SDS011;1899;49.966;7.106;2022-07-10T13:13:42;1.43;;;1.33;;
3767;SDS011;1899;49.966;7.106;2022-07-10T13:16:08;3.40;;;1.70;;
3767;SDS011;1899;49.966;7.106;2022-07-10T13:18:33;1.33;;;1.23;;
3767;SDS011;1899;49.966;7.106;2022-07-10T13:20:59;2.60;;;2.03;;
3767;SDS011;1899;49.966;7.106;2022-07-10T13:23:24;2.20;;;1.77;;
3767;SDS011;1899;49.966;7.106;2022-07-10T13:25:51;1.50;;;1.40;;
3767;SDS011;1899;49.966;7.106;2022-07-10T13:28:16;1.60;;;1.50;;
3767;SDS011;1899;49.966;7.106;2022-07-10T13:30:42;1.47;;;1.37;;
3767;SDS011;1899;49.966;7.106;2022-07-10T13:33:07;2.67;;;1.50;;
3767;SDS011;1899;49.966;7.106;2022-07-10T13:35:32;3.57;;;1.57;;
3767;SDS011;1899;49.966;7.106;2022-07-10T13:37:58;1.40;;;1.30;;
3767;SDS011;1899;49.966;7.106;2022-07-10T13:40:28;1.40;;;1.30;;
3767;SDS011;1899;49.966;7.106;2022-07-10T13:42:53;1.77;;;1.27;;
3767;SDS011;1899;49.966;7.106;2022-07-10T13:45:20;1.40;;;1.23;;
3767;SDS011;1899;49.966;7.106;2022-07-10T13:47:45;1.77;;;1.40;;
3767;SDS011;1899;49.966;7.106;2022-07-10T13:50:11;2.27;;;2.07;;
3767;SDS011;1899;49.966;7.106;2022-07-10T13:52:36;1.60;;;1.37;;
3767;SDS011;1899;49.966;7.106;2022-07-10T13:55:01;1.53;;;1.43;;
3767;SDS011;1899;49.966;7.106;2022-07-10T13:57:29;1.93;;;1.57;;
3767;SDS011;1899;49.966;7.106;2022-07-10T13:59:54;1.40;;;1.30;;
3767;SDS011;1899;49.966;7.106;2022-07-10T14:02:19;3.37;;;1.30;;
3767;SDS011;1899;49.966;7.106;2022-07-10T14:04:45;1.57;;;1.30;;
3767;SDS011;1899;49.966;7.106;2022-07-10T14:07:10;1.87;;;1.43;;
3767;SDS011;1899;49.966;7.106;2022-07-10T14:09:35;1.73;;;1.50;;
3767;SDS011;1899;49.966;7.106;2022-07-10T14:12:01;1.93;;;1.20;;
3767;SDS011;1899;49.966;7.106;2022-07-10T14:14:26;1.80;;;1.33;;
3767;SDS011;1899;49.966;7.106;2022-07-10T14:16:51;1.37;;;1.20;;
3767;SDS011;1899;49.966;7.106;2022-07-10T14:19:17;1.93;;;1.40;;
3767;SDS011;1899;49.966;7.106;2022-07-10T14:21:42;1.57;;;1.47;;
3767;SDS011;1899;49.966;7.106;2022-07-10T14:24:07;1.67;;;1.20;;
3767;SDS011;1899;49.966;7.106;2022-07-10T14:26:33;2.60;;;1.33;;
3767;SDS011;1899;49.966;7.106;2022-07-10T14:29:00;1.53;;;1.43;;
3767;SDS011;1899;49.966;7.106;2022-07-10T14:31:27;2.20;;;1.70;;
3767;SDS011;1899;49.966;7.106;2022-07-10T14:33:52;1.70;;;1.53;;
3767;SDS011;1899;49.966;7.106;2022-07-10T14:36:17;1.60;;;1.50;;
3767;SDS011;1899;49.966;7.106;2022-07-10T14:38:42;1.50;;;1.40;;
3767;SDS011;1899;49.966;7.106;2022-07-10T14:41:09;2.10;;;1.60;;
3767;SDS011;1899;49.966;7.106;2022-07-10T14:43:34;2.40;;;1.70;;
3767;SDS011;1899;49.966;7.106;2022-07-10T14:46:00;2.03;;;1.50;;
3767;SDS011;1899;49.966;7.106;2022-07-10T14:48:28;2.60;;;1.70;;
3767;SDS011;1899;49.966;7.106;2022-07-10T14:50:54;4.90;;;2.90;;
3767;SDS011;1899;49.966;7.106;2022-07-10T14:53:22;2.17;;;1.97;;
3767;SDS011;1899;49.966;7.106;2022-07-10T14:55:47;2.20;;;2.00;;
3767;SDS011;1899;49.966;7.106;2022-07-10T14:58:13;3.03;;;1.97;;
3767;SDS011;1899;49.966;7.106;2022-07-10T15:00:38;3.13;;;2.00;;
3767;SDS011;1899;49.966;7.106;2022-07-10T15:03:03;2.33;;;2.13;;
3767;SDS011;1899;49.966;7.106;2022-07-10T15:05:28;2.20;;;1.93;;
3767;SDS011;1899;49.966;7.106;2022-07-10T15:07:54;1.80;;;1.70;;
3767;SDS011;1899;49.966;7.106;2022-07-10T15:10:19;2.30;;;1.67;;
3767;SDS011;1899;49.966;7.106;2022-07-10T15:12:45;2.07;;;1.53;;
3767;SDS011;1899;49.966;7.106;2022-07-10T15:15:11;2.17;;;1.37;;
3767;SDS011;1899;49.966;7.106;2022-07-10T15:17:36;1.97;;;1.20;;
3767;SDS011;1899;49.966;7.106;2022-07-10T15:20:02;2.20;;;1.60;;
3767;SDS011;1899;49.966;7.106;2022-07-10T15:22:27;2.90;;;1.17;;
3767;SDS011;1899;49.966;7.106;2022-07-10T15:24:53;8.57;;;1.63;;
3767;SDS011;1899;49.966;7.106;2022-07-10T15:27:18;1.57;;;1.20;;
3767;SDS011;1899;49.966;7.106;2022-07-10T15:29:43;1.70;;;1.10;;
3767;SDS011;1899;49.966;7.106;2022-07-10T15:32:08;3.20;;;1.40;;
3767;SDS011;1899;49.966;7.106;2022-07-10T15:34:35;2.30;;;1.20;;
3767;SDS011;1899;49.966;7.106;2022-07-10T15:37:01;2.10;;;1.00;;
3767;SDS011;1899;49.966;7.106;2022-07-10T15:39:26;1.10;;;1.00;;
3767;SDS011;1899;49.966;7.106;2022-07-10T15:41:51;1.43;;;1.20;;
3767;SDS011;1899;49.966;7.106;2022-07-10T15:44:17;1.10;;;0.97;;
3767;SDS011;1899;49.966;7.106;2022-07-10T15:46:42;2.07;;;1.27;;
3767;SDS011;1899;49.966;7.106;2022-07-10T15:49:07;1.63;;;1.10;;
3767;SDS011;1899;49.966;7.106;2022-07-10T15:51:33;1.23;;;1.03;;
3767;SDS011;1899;49.966;7.106;2022-07-10T15:53:58;1.60;;;1.20;;
3767;SDS011;1899;49.966;7.106;2022-07-10T15:56:24;1.37;;;1.00;;
3767;SDS011;1899;49.966;7.106;2022-07-10T15:58:49;3.53;;;1.30;;
3767;SDS011;1899;49.966;7.106;2022-07-10T16:01:14;1.53;;;1.00;;
3767;SDS011;1899;49.966;7.106;2022-07-10T16:03:41;1.30;;;1.17;;
3767;SDS011;1899;49.966;7.106;2022-07-10T16:06:08;1.30;;;1.20;;
3767;SDS011;1899;49.966;7.106;2022-07-10T16:08:35;1.40;;;1.07;;
3767;SDS011;1899;49.966;7.106;2022-07-10T16:11:00;2.27;;;0.93;;
3767;SDS011;1899;49.966;7.106;2022-07-10T16:13:26;2.30;;;1.67;;
3767;SDS011;1899;49.966;7.106;2022-07-10T16:15:51;1.60;;;1.00;;
3767;SDS011;1899;49.966;7.106;2022-07-10T16:18:16;3.37;;;1.23;;
3767;SDS011;1899;49.966;7.106;2022-07-10T16:20:41;3.90;;;1.37;;
3767;SDS011;1899;49.966;7.106;2022-07-10T16:23:07;2.10;;;1.10;;
3767;SDS011;1899;49.966;7.106;2022-07-10T16:25:32;1.77;;;1.17;;
3767;SDS011;1899;49.966;7.106;2022-07-10T16:28:16;1.50;;;1.23;;
3767;SDS011;1899;49.966;7.106;2022-07-10T16:30:42;1.67;;;1.00;;
3767;SDS011;1899;49.966;7.106;2022-07-10T16:33:08;1.63;;;1.00;;
3767;SDS011;1899;49.966;7.106;2022-07-10T16:35:33;1.30;;;1.20;;
3767;SDS011;1899;49.966;7.106;2022-07-10T16:37:58;2.53;;;1.27;;
3767;SDS011;1899;49.966;7.106;2022-07-10T16:40:23;1.17;;;1.03;;
3767;SDS011;1899;49.966;7.106;2022-07-10T16:42:49;2.00;;;1.00;;
3767;SDS011;1899;49.966;7.106;2022-07-10T16:45:14;2.70;;;1.40;;
3767;SDS011;1899;49.966;7.106;2022-07-10T16:47:39;3.10;;;1.53;;
3767;SDS011;1899;49.966;7.106;2022-07-10T16:50:05;1.77;;;1.20;;
3767;SDS011;1899;49.966;7.106;2022-07-10T16:52:30;1.80;;;1.30;;
3767;SDS011;1899;49.966;7.106;2022-07-10T16:54:55;2.50;;;1.10;;
3767;SDS011;1899;49.966;7.106;2022-07-10T16:57:21;4.10;;;1.23;;
3767;SDS011;1899;49.966;7.106;2022-07-10T16:59:46;1.83;;;1.40;;
3767;SDS011;1899;49.966;7.106;2022-07-10T17:02:15;4.10;;;1.57;;
3767;SDS011;1899;49.966;7.106;2022-07-10T17:04:40;1.30;;;1.00;;
3767;SDS011;1899;49.966;7.106;2022-07-10T17:07:06;2.57;;;1.20;;
3767;SDS011;1899;49.966;7.106;2022-07-10T17:09:32;2.33;;;1.57;;
3767;SDS011;1899;49.966;7.106;2022-07-10T17:11:57;4.43;;;1.40;;
3767;SDS011;1899;49.966;7.106;2022-07-10T17:14:22;2.03;;;1.73;;
3767;SDS011;1899;49.966;7.106;2022-07-10T17:16:48;3.10;;;1.60;;
3767;SDS011;1899;49.966;7.106;2022-07-10T17:19:13;3.30;;;1.27;;
3767;SDS011;1899;49.966;7.106;2022-07-10T17:21:39;2.80;;;1.30;;
3767;SDS011;1899;49.966;7.106;2022-07-10T17:24:04;2.40;;;1.37;;
3767;SDS011;1899;49.966;7.106;2022-07-10T17:26:29;1.50;;;1.40;;
3767;SDS011;1899;49.966;7.106;2022-07-10T17:28:54;2.70;;;1.20;;
3767;SDS011;1899;49.966;7.106;2022-07-10T17:31:20;1.87;;;0.90;;
3767;SDS011;1899;49.966;7.106;2022-07-10T17:33:45;1.73;;;1.13;;
3767;SDS011;1899;49.966;7.106;2022-07-10T17:36:10;1.20;;;0.97;;
3767;SDS011;1899;49.966;7.106;2022-07-10T17:38:36;2.83;;;1.60;;
3767;SDS011;1899;49.966;7.106;2022-07-10T17:41:01;2.20;;;1.40;;
3767;SDS011;1899;49.966;7.106;2022-07-10T17:43:28;2.90;;;1.20;;
3767;SDS011;1899;49.966;7.106;2022-07-10T17:45:53;1.40;;;1.30;;
3767;SDS011;1899;49.966;7.106;2022-07-10T17:48:19;2.53;;;1.80;;
3767;SDS011;1899;49.966;7.106;2022-07-10T17:50:44;1.60;;;1.33;;
3767;SDS011;1899;49.966;7.106;2022-07-10T17:53:09;2.80;;;1.40;;
3767;SDS011;1899;49.966;7.106;2022-07-10T17:55:34;1.27;;;1.17;;
3767;SDS011;1899;49.966;7.106;2022-07-10T17:58:00;2.17;;;1.33;;
3767;SDS011;1899;49.966;7.106;2022-07-10T18:00:25;3.00;;;1.47;;
3767;SDS011;1899;49.966;7.106;2022-07-10T18:02:50;4.30;;;1.70;;
3767;SDS011;1899;49.966;7.106;2022-07-10T18:05:15;1.93;;;1.23;;
3767;SDS011;1899;49.966;7.106;2022-07-10T18:07:41;1.93;;;1.73;;
3767;SDS011;1899;49.966;7.106;2022-07-10T18:10:06;3.57;;;1.50;;
3767;SDS011;1899;49.966;7.106;2022-07-10T18:12:31;2.23;;;1.47;;
3767;SDS011;1899;49.966;7.106;2022-07-10T18:14:57;2.87;;;1.33;;
3767;SDS011;1899;49.966;7.106;2022-07-10T18:17:22;1.90;;;1.40;;
3767;SDS011;1899;49.966;7.106;2022-07-10T18:19:47;2.83;;;1.90;;
3767;SDS011;1899;49.966;7.106;2022-07-10T18:22:13;2.10;;;1.20;;
3767;SDS011;1899;49.966;7.106;2022-07-10T18:24:38;2.63;;;1.47;;
3767;SDS011;1899;49.966;7.106;2022-07-10T18:27:03;2.20;;;1.40;;
3767;SDS011;1899;49.966;7.106;2022-07-10T18:29:29;4.23;;;1.40;;
3767;SDS011;1899;49.966;7.106;2022-07-10T18:31:54;3.33;;;1.60;;
3767;SDS011;1899;49.966;7.106;2022-07-10T18:34:20;2.40;;;1.33;;
3767;SDS011;1899;49.966;7.106;2022-07-10T18:36:59;2.03;;;1.50;;
3767;SDS011;1899;49.966;7.106;2022-07-10T18:39:24;2.90;;;1.50;;
3767;SDS011;1899;49.966;7.106;2022-07-10T18:41:50;3.13;;;1.33;;
3767;SDS011;1899;49.966;7.106;2022-07-10T18:44:16;1.80;;;1.23;;
3767;SDS011;1899;49.966;7.106;2022-07-10T18:46:41;2.40;;;1.40;;
3767;SDS011;1899;49.966;7.106;2022-07-10T18:49:07;2.00;;;1.67;;
3767;SDS011;1899;49.966;7.106;2022-07-10T18:51:32;1.60;;;1.50;;
3767;SDS011;1899;49.966;7.106;2022-07-10T18:53:57;5.57;;;2.00;;
3767;SDS011;1899;49.966;7.106;2022-07-10T18:56:23;2.87;;;1.70;;
3767;SDS011;1899;49.966;7.106;2022-07-10T18:58:48;2.30;;;1.40;;
3767;SDS011;1899;49.966;7.106;2022-07-10T19:01:13;2.10;;;1.60;;
3767;SDS011;1899;49.966;7.106;2022-07-10T19:03:39;1.93;;;1.47;;
3767;SDS011;1899;49.966;7.106;2022-07-10T19:06:05;2.10;;;1.43;;
3767;SDS011;1899;49.966;7.106;2022-07-10T19:08:30;1.80;;;1.57;;
3767;SDS011;1899;49.966;7.106;2022-07-10T19:10:56;1.83;;;1.40;;
3767;SDS011;1899;49.966;7.106;2022-07-10T19:13:21;2.40;;;1.20;;
3767;SDS011;1899;49.966;7.106;2022-07-10T19:15:48;1.77;;;1.37;;
3767;SDS011;1899;49.966;7.106;2022-07-10T19:18:13;1.77;;;1.47;;
3767;SDS011;1899;49.966;7.106;2022-07-10T19:20:38;2.23;;;1.70;;
3767;SDS011;1899;49.966;7.106;2022-07-10T19:23:04;4.33;;;1.70;;
3767;SDS011;1899;49.966;7.106;2022-07-10T19:25:29;2.20;;;1.30;;
3767;SDS011;1899;49.966;7.106;2022-07-10T19:27:58;2.50;;;1.80;;
3767;SDS011;1899;49.966;7.106;2022-07-10T19:30:27;1.93;;;1.80;;
3767;SDS011;1899;49.966;7.106;2022-07-10T19:32:52;1.60;;;1.40;;